createdAt,value
2022-11-01T00:02:17.543Z,0.70
2022-11-01T00:04:46.586Z,0.50
2022-11-01T00:07:17.207Z,0.60
2022-11-01T00:09:46.162Z,0.63
2022-11-01T00:12:15.455Z,0.60
2022-11-01T00:14:44.373Z,0.70
2022-11-01T00:17:14.026Z,0.82
2022-11-01T00:19:42.938Z,0.68
2022-11-01T00:22:11.815Z,0.70
2022-11-01T00:24:42.152Z,0.50
2022-11-01T00:27:11.230Z,0.70
2022-11-01T00:29:40.291Z,0.60
2022-11-01T00:32:09.155Z,0.60
2022-11-01T00:34:38.103Z,0.70
2022-11-01T00:37:07.055Z,0.77
2022-11-01T00:39:35.981Z,0.60
2022-11-01T00:42:07.615Z,0.77
2022-11-01T00:44:36.520Z,0.70
2022-11-01T00:47:05.505Z,0.63
2022-11-01T00:49:34.498Z,0.68
2022-11-01T00:52:03.514Z,0.70
2022-11-01T00:54:32.498Z,0.73
2022-11-01T00:57:01.494Z,1.38
2022-11-01T00:59:31.817Z,1.20
2022-11-01T01:02:00.846Z,1.02
2022-11-01T01:04:29.894Z,0.70
2022-11-01T01:06:58.888Z,0.73
2022-11-01T01:09:27.789Z,0.50
2022-11-01T01:11:58.927Z,0.65
2022-11-01T01:14:32.251Z,0.85
2022-11-01T01:17:03.326Z,0.80
2022-11-01T01:19:32.520Z,0.80
2022-11-01T01:22:01.572Z,0.63
2022-11-01T01:24:30.797Z,0.80
2022-11-01T01:26:59.835Z,0.63
2022-11-01T01:29:28.941Z,0.68
2022-11-01T01:31:57.830Z,0.80
2022-11-01T01:34:28.175Z,0.90
2022-11-01T01:36:57.206Z,1.55
2022-11-01T01:39:26.193Z,0.75
2022-11-01T01:41:57.727Z,0.90
2022-11-01T01:45:03.131Z,1.20
2022-11-01T01:50:09.709Z,0.93
2022-11-01T01:52:43.372Z,0.80
2022-11-01T01:55:13.761Z,0.60
2022-11-01T01:57:43.751Z,0.80
2022-11-01T02:00:13.935Z,1.00
2022-11-01T02:02:43.984Z,0.80
2022-11-01T02:05:23.074Z,0.90
2022-11-01T02:07:52.593Z,0.55
2022-11-01T02:10:22.933Z,1.08
2022-11-01T02:12:52.418Z,0.90
2022-11-01T02:15:28.864Z,0.80
2022-11-01T02:18:28.339Z,0.75
2022-11-01T02:21:29.296Z,0.85
2022-11-01T02:24:23.900Z,0.70
2022-11-01T02:27:11.884Z,0.73
2022-11-01T02:30:11.186Z,1.17
2022-11-01T02:32:53.518Z,0.77
2022-11-01T02:35:28.470Z,0.60
2022-11-01T02:38:04.689Z,0.80
2022-11-01T02:40:42.642Z,0.85
2022-11-01T02:43:17.323Z,0.52
2022-11-01T02:45:49.529Z,0.80
2022-11-01T02:48:22.255Z,0.68
2022-11-01T02:50:57.258Z,1.02
2022-11-01T02:53:26.264Z,0.93
2022-11-01T02:55:55.543Z,0.80
2022-11-01T02:58:26.465Z,0.60
2022-11-01T03:00:57.087Z,1.13
2022-11-01T03:03:33.919Z,0.70
2022-11-01T03:06:12.474Z,0.90
2022-11-01T03:08:46.172Z,0.70
2022-11-01T03:11:17.938Z,0.68
2022-11-01T03:13:57.638Z,0.82
2022-11-01T03:16:32.123Z,0.70
2022-11-01T03:19:09.295Z,0.75
2022-11-01T03:21:43.449Z,0.77
2022-11-01T03:24:22.250Z,0.63
2022-11-01T03:26:56.945Z,0.65
2022-11-01T03:29:28.668Z,0.80
2022-11-01T03:31:59.245Z,0.90
2022-11-01T03:34:31.218Z,1.00
2022-11-01T03:37:05.025Z,0.77
2022-11-01T03:39:40.107Z,0.85
2022-11-01T03:42:14.687Z,0.80
2022-11-01T03:44:48.386Z,0.70
2022-11-01T03:47:17.703Z,0.80
2022-11-01T03:49:48.236Z,0.68
2022-11-01T03:52:17.926Z,0.85
2022-11-01T03:54:46.866Z,0.90
2022-11-01T03:57:16.542Z,0.70
2022-11-01T03:59:45.798Z,0.90
2022-11-01T04:02:14.692Z,0.95
2022-11-01T04:04:43.571Z,0.93
2022-11-01T04:07:13.913Z,0.93
2022-11-01T04:09:42.824Z,0.88
2022-11-01T04:12:11.818Z,1.23
2022-11-01T04:14:58.224Z,0.80
2022-11-01T04:17:44.806Z,0.77
2022-11-01T04:20:30.996Z,0.90
2022-11-01T04:23:01.779Z,0.60
2022-11-01T04:25:31.929Z,1.13
2022-11-01T04:28:01.171Z,0.90
2022-11-01T04:30:30.952Z,0.90
2022-11-01T04:33:00.061Z,0.70
2022-11-01T04:35:29.393Z,0.52
2022-11-01T04:38:00.703Z,1.20
2022-11-01T04:40:29.984Z,0.93
2022-11-01T04:43:00.414Z,1.08
2022-11-01T04:45:29.521Z,0.70
2022-11-01T04:48:06.207Z,1.25
2022-11-01T04:50:36.618Z,1.13
2022-11-01T04:53:07.246Z,1.10
2022-11-01T04:55:36.471Z,1.08
2022-11-01T04:58:06.808Z,1.00
2022-11-01T05:00:36.675Z,0.95
2022-11-01T05:03:07.705Z,1.10
2022-11-01T05:05:38.015Z,0.85
2022-11-01T05:08:10.374Z,0.75
2022-11-01T05:10:41.335Z,0.47
2022-11-01T05:13:12.015Z,0.70
2022-11-01T05:15:59.714Z,0.80
2022-11-01T05:18:34.698Z,0.95
2022-11-01T05:21:03.903Z,0.60
2022-11-01T05:23:34.425Z,0.68
2022-11-01T05:26:03.422Z,0.68
2022-11-01T05:28:32.310Z,0.70
2022-11-01T05:31:01.550Z,0.60
2022-11-01T05:33:30.528Z,0.85
2022-11-01T05:36:02.355Z,0.60
2022-11-01T05:38:31.377Z,0.70
2022-11-01T05:41:03.218Z,0.52
2022-11-01T05:43:32.204Z,0.68
2022-11-01T05:46:05.164Z,0.82
2022-11-01T05:48:34.187Z,0.57
2022-11-01T05:51:03.166Z,0.55
2022-11-01T05:53:32.074Z,1.15
2022-11-01T05:56:02.473Z,1.00
2022-11-01T05:58:31.636Z,1.00
2022-11-01T06:01:01.170Z,0.98
2022-11-01T06:03:30.566Z,0.88
2022-11-01T06:05:59.615Z,1.10
2022-11-01T06:08:29.143Z,1.08
2022-11-01T06:11:05.019Z,0.90
2022-11-01T06:13:34.827Z,0.88
2022-11-01T06:16:06.795Z,0.80
2022-11-01T06:18:35.807Z,1.00
2022-11-01T06:21:04.832Z,0.93
2022-11-01T06:23:33.794Z,1.20
2022-11-01T06:26:05.067Z,0.93
2022-11-01T06:28:34.437Z,1.15
2022-11-01T06:33:34.982Z,0.90
2022-11-01T06:36:04.060Z,1.10
2022-11-01T06:38:33.238Z,0.60
2022-11-01T06:41:03.685Z,0.68
2022-11-01T06:43:32.568Z,1.17
2022-11-01T06:46:02.095Z,1.00
2022-11-01T06:48:31.262Z,0.82
2022-11-01T06:51:00.173Z,1.13
2022-11-01T06:53:29.214Z,0.95
2022-11-01T06:56:00.236Z,1.00
2022-11-01T06:58:30.524Z,1.05
2022-11-01T07:00:59.838Z,0.85
2022-11-01T07:03:28.737Z,1.20
2022-11-01T07:06:01.242Z,1.10
2022-11-01T07:08:30.210Z,0.80
2022-11-01T07:10:59.117Z,0.90
2022-11-01T07:13:31.143Z,1.27
2022-11-01T07:16:04.212Z,0.85
2022-11-01T07:18:34.590Z,0.85
2022-11-01T07:21:04.662Z,0.85
2022-11-01T07:23:33.618Z,0.80
2022-11-01T07:26:02.643Z,1.10
2022-11-01T07:28:32.115Z,0.85
2022-11-01T07:31:03.614Z,1.15
2022-11-01T07:33:32.616Z,1.30
2022-11-01T07:36:02.767Z,1.25
2022-11-01T07:38:32.457Z,1.23
2022-11-01T07:41:02.886Z,1.25
2022-11-01T07:43:32.168Z,1.40
2022-11-01T07:46:04.243Z,1.40
2022-11-01T07:48:33.479Z,1.55
2022-11-01T07:51:03.524Z,1.55
2022-11-01T07:53:32.446Z,1.08
2022-11-01T07:56:01.958Z,1.52
2022-11-01T07:58:31.161Z,1.40
2022-11-01T08:01:01.619Z,1.20
2022-11-01T08:03:32.045Z,1.30
2022-11-01T08:06:01.071Z,1.20
2022-11-01T08:08:29.938Z,1.30
2022-11-01T08:11:01.012Z,0.68
2022-11-01T08:13:30.754Z,0.90
2022-11-01T08:16:02.860Z,0.82
2022-11-01T08:18:33.767Z,0.98
2022-11-01T08:21:02.672Z,0.98
2022-11-01T08:23:31.748Z,0.90
2022-11-01T08:26:00.691Z,0.90
2022-11-01T08:28:30.541Z,1.10
2022-11-01T08:30:59.507Z,1.00
2022-11-01T08:33:28.434Z,1.30
2022-11-01T08:35:58.736Z,0.90
2022-11-01T08:38:27.915Z,1.23
2022-11-01T08:40:56.821Z,1.00
2022-11-01T08:43:25.748Z,1.05
2022-11-01T08:45:54.863Z,0.95
2022-11-01T08:48:23.829Z,0.90
2022-11-01T08:50:52.838Z,0.90
2022-11-01T08:53:24.957Z,0.90
2022-11-01T08:55:56.267Z,0.55
2022-11-01T08:58:25.472Z,0.90
2022-11-01T09:00:54.832Z,0.90
2022-11-01T09:03:23.790Z,0.80
2022-11-01T09:05:52.777Z,0.82
2022-11-01T09:08:23.240Z,1.00
2022-11-01T09:10:52.225Z,1.30
2022-11-01T09:13:21.156Z,1.17
2022-11-01T09:15:50.164Z,1.08
2022-11-01T09:18:19.476Z,1.23
2022-11-01T09:20:55.080Z,1.23
2022-11-01T09:23:25.415Z,1.30
2022-11-01T09:25:54.460Z,1.23
2022-11-01T09:28:23.476Z,1.08
2022-11-01T09:31:01.371Z,1.00
2022-11-01T09:33:37.571Z,0.90
2022-11-01T09:36:07.317Z,1.00
2022-11-01T09:38:37.761Z,1.00
2022-11-01T09:41:15.499Z,0.70
2022-11-01T09:43:46.002Z,0.82
2022-11-01T09:46:19.131Z,0.95
2022-11-01T09:48:49.256Z,1.17
2022-11-01T09:51:22.055Z,0.90
2022-11-01T09:53:55.207Z,1.00
2022-11-01T09:56:30.605Z,1.00
2022-11-01T09:59:09.661Z,0.95
2022-11-01T10:01:46.126Z,1.33
2022-11-01T10:04:51.668Z,1.42
2022-11-01T10:07:27.285Z,1.08
2022-11-01T10:10:08.519Z,1.00
2022-11-01T10:12:53.740Z,1.10
2022-11-01T10:15:40.382Z,1.10
2022-11-01T10:18:24.451Z,1.15
2022-11-01T10:20:54.263Z,1.25
2022-11-01T10:23:33.845Z,1.08
2022-11-01T10:26:06.182Z,0.98
2022-11-01T10:28:47.718Z,1.15
2022-11-01T10:31:19.309Z,1.05
2022-11-01T10:33:51.491Z,0.90
2022-11-01T10:36:25.224Z,1.20
2022-11-01T10:39:44.459Z,1.60
2022-11-01T10:41:52.869Z,1.20
2022-11-01T10:44:28.483Z,1.60
2022-11-01T10:47:00.636Z,1.08
2022-11-01T10:49:52.959Z,1.05
2022-11-01T10:52:27.491Z,1.20
2022-11-01T10:54:58.695Z,1.17
2022-11-01T10:57:42.254Z,0.80
2022-11-01T11:00:17.714Z,0.93
2022-11-01T11:02:50.739Z,0.60
2022-11-01T11:05:22.418Z,0.90
2022-11-01T11:07:52.207Z,1.17
2022-11-01T11:10:24.957Z,1.50
2022-11-01T11:13:01.821Z,1.17
2022-11-01T11:15:43.301Z,1.25
2022-11-01T11:18:21.476Z,1.20
2022-11-01T11:20:53.538Z,1.05
2022-11-01T11:23:23.836Z,1.30
2022-11-01T11:25:52.907Z,1.00
2022-11-01T11:28:31.891Z,0.90
2022-11-01T11:31:14.742Z,1.10
2022-11-01T11:33:50.419Z,0.77
2022-11-01T11:36:26.341Z,1.08
2022-11-01T11:38:56.301Z,1.20
2022-11-01T11:41:32.010Z,1.30
2022-11-01T11:44:02.871Z,1.13
2022-11-01T11:46:32.057Z,1.15
2022-11-01T11:49:04.677Z,0.60
2022-11-01T11:51:37.601Z,1.25
2022-11-01T11:54:21.995Z,0.80
2022-11-01T11:56:54.224Z,1.20
2022-11-01T11:59:29.716Z,1.00
2022-11-01T12:02:01.096Z,1.02
2022-11-01T12:04:37.923Z,0.95
2022-11-01T12:07:22.866Z,1.23
2022-11-01T12:09:52.331Z,1.10
2022-11-01T12:12:25.515Z,1.00
2022-11-01T12:14:56.849Z,0.90
2022-11-01T12:17:35.552Z,1.20
2022-11-01T12:20:13.736Z,1.13
2022-11-01T12:22:48.378Z,1.17
2022-11-01T12:25:21.910Z,1.08
2022-11-01T12:28:04.225Z,0.88
2022-11-01T12:30:36.952Z,1.25
2022-11-01T12:35:50.347Z,0.90
2022-11-01T12:38:44.058Z,1.15
2022-11-01T12:41:29.290Z,1.50
2022-11-01T12:44:05.119Z,1.30
2022-11-01T12:46:42.706Z,1.17
2022-11-01T12:49:18.921Z,1.10
2022-11-01T12:51:52.120Z,1.00
2022-11-01T12:54:27.458Z,1.30
2022-11-01T12:56:58.491Z,0.93
2022-11-01T12:59:33.962Z,1.10
2022-11-01T13:04:51.838Z,1.02
2022-11-01T13:07:33.148Z,1.10
2022-11-01T13:10:09.402Z,1.35
2022-11-01T13:12:47.096Z,1.10
2022-11-01T13:15:24.220Z,1.27
2022-11-01T13:18:05.800Z,1.10
2022-11-01T13:20:47.333Z,1.30
2022-11-01T13:23:22.274Z,1.85
2022-11-01T13:25:59.522Z,1.67
2022-11-01T13:28:58.091Z,1.38
2022-11-01T13:31:36.877Z,1.10
2022-11-01T13:34:22.172Z,1.25
2022-11-01T13:36:58.747Z,1.38
2022-11-01T13:39:38.407Z,1.10
2022-11-01T13:42:12.684Z,1.42
2022-11-01T13:44:45.750Z,1.30
2022-11-01T13:47:28.445Z,1.17
2022-11-01T13:50:39.256Z,1.10
2022-11-01T13:53:18.015Z,1.55
2022-11-01T13:55:55.242Z,1.30
2022-11-01T13:58:24.894Z,0.93
2022-11-01T14:00:55.899Z,1.50
2022-11-01T14:03:29.634Z,1.15
2022-11-01T14:06:31.225Z,1.40
2022-11-01T14:09:32.900Z,1.40
2022-11-01T14:12:13.848Z,1.05
2022-11-01T14:14:52.861Z,1.42
2022-11-01T14:17:56.054Z,1.45
2022-11-01T14:20:47.807Z,1.80
2022-11-01T14:23:52.927Z,1.30
2022-11-01T14:26:50.159Z,1.33
2022-11-01T14:29:20.132Z,1.17
2022-11-01T14:31:53.588Z,1.88
2022-11-01T14:34:35.485Z,1.40
2022-11-01T14:37:15.125Z,1.90
2022-11-01T14:39:52.883Z,1.77
2022-11-01T14:42:31.552Z,1.48
2022-11-01T14:45:03.055Z,1.10
2022-11-01T14:47:40.854Z,1.20
2022-11-01T14:50:17.858Z,1.60
2022-11-01T14:52:52.282Z,1.30
2022-11-01T14:55:26.450Z,1.50
2022-11-01T14:58:11.746Z,1.38
2022-11-01T15:00:41.597Z,1.50
2022-11-01T15:03:11.496Z,1.70
2022-11-01T15:05:45.852Z,2.13
2022-11-01T15:08:24.429Z,1.43
2022-11-01T15:10:56.130Z,1.23
2022-11-01T15:13:28.983Z,1.20
2022-11-01T15:16:05.232Z,1.40
2022-11-01T15:18:34.814Z,1.50
2022-11-01T15:21:09.430Z,1.30
2022-11-01T15:23:40.469Z,1.38
2022-11-01T15:26:13.132Z,1.23
2022-11-01T15:28:51.392Z,1.20
2022-11-01T15:31:26.886Z,1.25
2022-11-01T15:33:58.259Z,1.27
2022-11-01T15:36:33.652Z,1.70
2022-11-01T15:39:04.770Z,1.20
2022-11-01T15:41:35.623Z,1.35
2022-11-01T15:44:07.473Z,1.40
2022-11-01T15:46:41.805Z,1.30
2022-11-01T15:49:17.679Z,1.30
2022-11-01T15:51:51.274Z,1.23
2022-11-01T15:54:35.361Z,1.20
2022-11-01T15:57:11.408Z,1.80
2022-11-01T15:59:49.764Z,1.50
2022-11-01T16:02:24.135Z,1.40
2022-11-01T16:04:53.914Z,1.80
2022-11-01T16:07:24.187Z,1.70
2022-11-01T16:09:55.764Z,1.55
2022-11-01T16:12:27.972Z,1.50
2022-11-01T16:15:00.987Z,1.70
2022-11-01T16:17:35.124Z,1.33
2022-11-01T16:20:25.948Z,1.42
2022-11-01T16:22:57.801Z,1.20
2022-11-01T16:25:29.730Z,1.58
2022-11-01T16:28:07.322Z,1.52
2022-11-01T16:30:46.962Z,1.58
2022-11-01T16:33:28.198Z,1.50
2022-11-01T16:35:59.139Z,1.73
2022-11-01T16:38:41.123Z,1.35
2022-11-01T16:41:18.130Z,1.38
2022-11-01T16:43:49.605Z,1.85
2022-11-01T16:46:20.395Z,1.85
2022-11-01T16:48:52.302Z,1.65
2022-11-01T16:51:24.983Z,1.92
2022-11-01T16:53:54.537Z,1.40
2022-11-01T16:56:42.517Z,1.55
2022-11-01T16:59:28.882Z,1.45
2022-11-01T17:01:59.996Z,1.55
2022-11-01T17:04:29.990Z,1.60
2022-11-01T17:06:59.253Z,1.65
2022-11-01T17:09:30.795Z,1.70
2022-11-01T17:11:59.781Z,1.85
2022-11-01T17:14:29.412Z,2.30
2022-11-01T17:17:07.231Z,2.15
2022-11-01T17:19:40.703Z,2.42
2022-11-01T17:22:16.334Z,1.92
2022-11-01T17:24:46.278Z,2.65
2022-11-01T17:27:16.993Z,2.63
2022-11-01T17:29:45.976Z,2.47
2022-11-01T17:32:16.351Z,2.40
2022-11-01T17:34:45.271Z,2.50
2022-11-01T17:37:17.167Z,2.90
2022-11-01T17:39:46.251Z,2.60
2022-11-01T17:42:15.670Z,2.53
2022-11-01T17:44:50.575Z,2.58
2022-11-01T17:49:50.308Z,2.33
2022-11-01T17:52:19.238Z,2.13
2022-11-01T17:54:48.341Z,2.08
2022-11-01T17:57:17.320Z,2.20
2022-11-01T17:59:46.282Z,2.17
2022-11-01T18:02:15.832Z,2.20
2022-11-01T18:04:46.716Z,2.10
2022-11-01T18:07:16.162Z,1.60
2022-11-01T18:09:45.445Z,2.03
2022-11-01T18:12:20.407Z,1.77
2022-11-01T18:14:54.585Z,1.58
2022-11-01T18:17:46.719Z,2.00
2022-11-01T18:20:42.689Z,2.63
2022-11-01T18:23:15.260Z,1.50
2022-11-01T18:25:47.936Z,1.65
2022-11-01T18:28:19.143Z,1.65
2022-11-01T18:30:52.991Z,1.70
2022-11-01T18:33:32.109Z,2.00
2022-11-01T18:36:08.894Z,1.70
2022-11-01T18:38:47.250Z,1.50
2022-11-01T18:41:20.817Z,1.83
2022-11-01T18:43:53.646Z,1.30
2022-11-01T18:46:27.193Z,1.73
2022-11-01T18:49:00.164Z,2.00
2022-11-01T18:51:32.532Z,1.45
2022-11-01T18:54:19.859Z,2.63
2022-11-01T18:56:51.246Z,2.13
2022-11-01T18:59:27.306Z,2.10
2022-11-01T19:02:01.309Z,2.00
2022-11-01T19:04:32.608Z,2.55
2022-11-01T19:07:12.585Z,2.35
2022-11-01T19:09:45.050Z,2.20
2022-11-01T19:12:17.075Z,2.30
2022-11-01T19:14:51.249Z,2.40
2022-11-01T19:17:24.760Z,2.00
2022-11-01T19:19:55.277Z,2.70
2022-11-01T19:22:37.985Z,4.72
2022-11-01T19:25:17.763Z,2.88
2022-11-01T19:27:47.791Z,2.45
2022-11-01T19:30:24.574Z,2.15
2022-11-01T19:32:56.443Z,2.25
2022-11-01T19:35:25.625Z,2.20
2022-11-01T19:37:58.441Z,2.30
2022-11-01T19:40:34.179Z,2.55
2022-11-01T19:43:13.154Z,1.80
2022-11-01T19:45:46.937Z,2.28
2022-11-01T19:48:19.635Z,2.45
2022-11-01T19:50:48.803Z,2.75
2022-11-01T19:53:25.798Z,2.20
2022-11-01T19:55:59.657Z,2.30
2022-11-01T19:58:32.282Z,2.65
2022-11-01T20:01:27.619Z,2.45
2022-11-01T20:03:58.509Z,2.50
2022-11-01T20:06:33.216Z,2.35
2022-11-01T20:09:06.443Z,2.47
2022-11-01T20:11:35.914Z,2.05
2022-11-01T20:14:06.231Z,2.33
2022-11-01T20:16:35.321Z,2.78
2022-11-01T20:19:04.326Z,2.50
2022-11-01T20:21:33.523Z,2.63
2022-11-01T20:24:04.732Z,2.28
2022-11-01T20:26:33.660Z,3.20
2022-11-01T20:29:02.830Z,2.58
2022-11-01T20:31:36.198Z,2.40
2022-11-01T20:34:05.287Z,3.20
2022-11-01T20:36:34.371Z,2.72
2022-11-01T20:39:04.944Z,2.88
2022-11-01T20:41:33.902Z,2.63
2022-11-01T20:44:02.956Z,2.65
2022-11-01T20:46:31.889Z,3.13
2022-11-01T20:49:00.766Z,2.10
2022-11-01T20:51:29.759Z,2.55
2022-11-01T20:54:00.256Z,2.47
2022-11-01T20:56:30.743Z,2.55
2022-11-01T20:58:59.810Z,2.50
2022-11-01T21:01:28.871Z,2.42
2022-11-01T21:03:58.478Z,2.60
2022-11-01T21:06:32.800Z,2.83
2022-11-01T21:09:03.841Z,3.38
2022-11-01T21:11:44.653Z,2.83
2022-11-01T21:14:16.836Z,2.55
2022-11-01T21:16:45.873Z,2.30
2022-11-01T21:19:20.809Z,2.33
2022-11-01T21:21:53.023Z,2.50
2022-11-01T21:24:32.437Z,2.03
2022-11-01T21:27:37.654Z,2.83
2022-11-01T21:30:18.333Z,2.25
2022-11-01T21:32:47.944Z,2.78
2022-11-01T21:35:38.993Z,2.08
2022-11-01T21:38:30.213Z,2.20
2022-11-01T21:40:59.369Z,2.40
2022-11-01T21:43:35.665Z,1.85
2022-11-01T21:46:04.868Z,2.45
2022-11-01T21:48:34.876Z,1.85
2022-11-01T21:51:03.794Z,2.20
2022-11-01T21:53:32.685Z,1.70
2022-11-01T21:56:01.621Z,2.22
2022-11-01T21:58:32.009Z,1.90
2022-11-01T22:01:01.321Z,2.00
2022-11-01T22:03:30.279Z,1.88
2022-11-01T22:05:59.435Z,2.05
2022-11-01T22:08:28.631Z,2.90
2022-11-01T22:10:58.018Z,2.25
2022-11-01T22:13:27.477Z,2.15
2022-11-01T22:15:58.126Z,2.00
2022-11-01T22:18:27.226Z,1.90
2022-11-01T22:20:56.421Z,1.90
2022-11-01T22:23:25.520Z,2.25
2022-11-01T22:25:54.623Z,2.40
2022-11-01T22:28:23.730Z,1.85
2022-11-01T22:30:52.829Z,1.55
2022-11-01T22:33:23.516Z,2.13
2022-11-01T22:35:52.796Z,2.03
2022-11-01T22:38:23.888Z,2.00
2022-11-01T22:43:35.401Z,2.13
2022-11-01T22:46:04.393Z,2.30
2022-11-01T22:48:34.696Z,2.03
2022-11-01T22:51:04.678Z,2.20
2022-11-01T22:53:34.096Z,2.13
2022-11-01T22:56:03.190Z,2.33
2022-11-01T22:58:36.297Z,2.00
2022-11-01T23:01:21.486Z,2.28
2022-11-01T23:03:59.231Z,2.15
2022-11-01T23:06:35.970Z,2.13
2022-11-01T23:09:14.584Z,2.42
2022-11-01T23:12:03.315Z,2.08
2022-11-01T23:14:39.431Z,2.30
2022-11-01T23:17:23.864Z,1.80
2022-11-01T23:19:58.797Z,2.08
2022-11-01T23:22:32.528Z,1.83
2022-11-01T23:25:01.690Z,2.38
2022-11-01T23:27:31.046Z,2.20
2022-11-01T23:30:02.696Z,2.08
2022-11-01T23:32:33.384Z,2.00
2022-11-01T23:35:14.006Z,2.20
2022-11-01T23:37:43.917Z,2.53
2022-11-01T23:40:17.825Z,2.63
2022-11-01T23:42:47.697Z,2.58
2022-11-01T23:45:29.172Z,2.85
2022-11-01T23:47:58.612Z,3.03
2022-11-01T23:50:32.229Z,2.70
2022-11-01T23:53:04.754Z,2.67
2022-11-01T23:55:36.565Z,2.95
2022-11-01T23:58:08.057Z,3.78
